KSMF/SMF METAR and TAF weather

Enter ICAO airport designator
Station Type Date Time Source
KSMF METAR 2019/10/23 19:53 UTC NOAA

KSMF 231953Z 33015KT 10SM FEW250 29/06 A2997 RMK AO2 SLP149 T02890061


Station Type Date Time Source
KSMF Decoded METAR 2019/10/23 19:53 UTC NOAA

SACRAMENTO INTERNATIONAL AIRPORT, CA, United States (KSMF) 38-42N 121-36W 6M
Oct 23, 2019 - 03:53 PM EDT / 2019.10.23 1953 UTC
Wind: from the NNW (330 degrees) at 17 MPH (15 KT):0
Visibility: 10 mile(s):0
Sky conditions: mostly clear
Temperature: 84.0 F (28.9 C)
Dew Point: 43.0 F (6.1 C)
Relative Humidity: 23%
Pressure (altimeter): 29.97 in. Hg (1014 hPa)
ob: KSMF 231953Z 33015KT 10SM FEW250 29/06 A2997 RMK AO2 SLP149 T02890061
cycle: 20

Station Type Date Time Source
KSMF TAF 2019/10/23 18:30 UTC NOAA

TAF KSMF 231727Z 2318/2418 35011KT P6SM SKC
FM232100 35017G24KT P6SM SKC
FM240100 35011G18KT P6SM SKC

Example: see airport list